createdAt,value
2023-02-03T00:01:46.952Z,58.86
2023-02-03T00:06:49.214Z,58.64
2023-02-03T00:11:51.626Z,58.15
2023-02-03T00:16:53.843Z,58.45
2023-02-03T00:21:56.593Z,58.26
2023-02-03T00:26:58.686Z,58.33
2023-02-03T00:32:01.024Z,58.61
2023-02-03T00:37:03.208Z,58.31
2023-02-03T00:42:06.730Z,58.48
2023-02-03T00:47:08.949Z,57.98
2023-02-03T00:52:11.093Z,58.20
2023-02-03T00:57:13.683Z,58.37
2023-02-03T01:02:17.289Z,58.56
2023-02-03T01:07:20.333Z,58.58
2023-02-03T01:12:22.812Z,58.92
2023-02-03T01:17:25.470Z,58.96
2023-02-03T01:22:30.886Z,58.67
2023-02-03T01:27:33.987Z,58.82
2023-02-03T01:32:36.102Z,58.68
2023-02-03T01:37:39.858Z,58.88
2023-02-03T01:42:42.095Z,58.46
2023-02-03T01:47:48.772Z,58.43
2023-02-03T01:52:57.251Z,58.42
2023-02-03T01:58:05.348Z,58.15
2023-02-03T02:03:09.382Z,57.98
2023-02-03T02:08:14.231Z,57.59
2023-02-03T02:13:19.074Z,57.84
2023-02-03T02:18:39.593Z,57.68
2023-02-03T02:24:12.882Z,57.68
2023-02-03T02:29:33.423Z,57.67
2023-02-03T02:34:55.607Z,57.53
2023-02-03T02:40:25.818Z,57.19
2023-02-03T02:45:32.528Z,57.45
2023-02-03T02:50:40.711Z,57.58
2023-02-03T02:55:45.044Z,57.60
2023-02-03T03:00:48.521Z,57.38
2023-02-03T03:05:59.192Z,57.15
2023-02-03T03:11:05.960Z,57.03
2023-02-03T03:16:12.612Z,56.86
2023-02-03T03:21:23.139Z,56.93
2023-02-03T03:26:32.979Z,56.99
2023-02-03T03:31:35.587Z,56.93
2023-02-03T03:36:54.194Z,56.94
2023-02-03T03:42:13.820Z,56.43
2023-02-03T03:47:29.478Z,56.47
2023-02-03T03:52:36.252Z,56.36
2023-02-03T03:57:46.702Z,56.59
2023-02-03T04:02:53.400Z,56.85
2023-02-03T04:07:55.851Z,57.09
2023-02-03T04:12:58.056Z,56.96
2023-02-03T04:18:01.660Z,56.36
2023-02-03T04:23:03.933Z,56.57
2023-02-03T04:28:07.263Z,56.37
2023-02-03T04:33:09.547Z,56.47
2023-02-03T04:38:11.733Z,56.80
2023-02-03T04:43:15.346Z,57.04
2023-02-03T04:48:17.452Z,56.84
2023-02-03T04:53:19.596Z,56.91
2023-02-03T04:58:21.861Z,56.42
2023-02-03T05:03:26.175Z,56.38
2023-02-03T05:08:28.513Z,56.26
2023-02-03T05:13:31.276Z,56.44
2023-02-03T05:18:33.496Z,56.80
2023-02-03T05:23:36.732Z,56.41
2023-02-03T05:28:39.274Z,56.42
2023-02-03T05:33:41.403Z,56.54
2023-02-03T05:38:43.540Z,56.13
2023-02-03T05:43:45.743Z,56.18
2023-02-03T05:48:47.929Z,56.02
2023-02-03T05:53:49.997Z,56.36
2023-02-03T05:58:53.630Z,56.30
2023-02-03T06:03:55.989Z,56.31
2023-02-03T06:08:58.118Z,55.66
2023-02-03T06:14:00.818Z,55.70
2023-02-03T06:19:03.032Z,55.78
2023-02-03T06:24:05.326Z,56.18
2023-02-03T06:29:07.495Z,56.18
2023-02-03T06:34:09.753Z,56.16
2023-02-03T06:39:11.885Z,56.17
2023-02-03T06:44:14.091Z,56.00
2023-02-03T06:49:17.681Z,55.89
2023-02-03T06:54:19.923Z,56.17
2023-02-03T06:59:22.602Z,56.36
2023-02-03T07:04:24.771Z,56.45
2023-02-03T07:09:26.918Z,56.38
2023-02-03T07:14:30.973Z,56.46
2023-02-03T07:19:33.154Z,56.42
2023-02-03T07:24:35.404Z,56.04
2023-02-03T07:29:37.483Z,55.98
2023-02-03T07:34:39.572Z,56.18
2023-02-03T07:39:42.524Z,56.02
2023-02-03T07:44:44.632Z,56.01
2023-02-03T07:49:46.757Z,56.13
2023-02-03T07:54:48.860Z,55.69
2023-02-03T07:59:51.032Z,55.69
2023-02-03T08:04:53.211Z,55.73
2023-02-03T08:09:55.336Z,55.50
2023-02-03T08:14:57.465Z,55.75
2023-02-03T08:20:00.332Z,55.59
2023-02-03T08:25:02.445Z,55.72
2023-02-03T08:30:05.502Z,55.71
2023-02-03T08:35:08.542Z,55.67
2023-02-03T08:40:12.423Z,55.48
2023-02-03T08:45:14.744Z,55.81
2023-02-03T08:50:17.115Z,56.01
2023-02-03T08:55:20.415Z,55.85
2023-02-03T09:00:22.986Z,55.79
2023-02-03T09:05:25.114Z,56.09
2023-02-03T09:10:27.790Z,55.89
2023-02-03T09:15:30.165Z,55.56
2023-02-03T09:20:32.594Z,55.71
2023-02-03T09:25:35.032Z,55.77
2023-02-03T09:30:37.278Z,55.64
2023-02-03T09:35:39.538Z,55.83
2023-02-03T09:40:41.671Z,55.51
2023-02-03T09:45:43.933Z,55.47
2023-02-03T09:50:47.612Z,55.09
2023-02-03T09:55:50.626Z,55.31
2023-02-03T10:01:06.499Z,55.60
2023-02-03T10:06:40.127Z,55.76
2023-02-03T10:12:00.626Z,55.64
2023-02-03T10:17:08.789Z,55.68
2023-02-03T10:22:17.612Z,55.60
2023-02-03T10:27:22.151Z,55.33
2023-02-03T10:32:26.661Z,55.50
2023-02-03T10:37:44.372Z,55.84
2023-02-03T10:43:07.961Z,55.36
2023-02-03T10:48:18.502Z,55.42
2023-02-03T10:53:33.759Z,55.36
2023-02-03T10:58:38.464Z,55.06
2023-02-03T11:03:54.214Z,54.93
2023-02-03T11:08:56.963Z,55.26
2023-02-03T11:14:05.331Z,55.34
2023-02-03T11:19:13.870Z,55.47
2023-02-03T11:24:30.683Z,55.45
2023-02-03T11:29:38.938Z,55.36
2023-02-03T11:34:47.722Z,55.20
2023-02-03T11:39:50.021Z,55.30
2023-02-03T11:44:53.548Z,55.58
2023-02-03T11:50:08.287Z,55.35
2023-02-03T11:55:40.807Z,55.52
2023-02-03T12:01:17.465Z,55.38
2023-02-03T12:06:58.113Z,55.42
2023-02-03T12:12:32.518Z,55.24
2023-02-03T12:17:53.207Z,55.20
2023-02-03T12:23:12.189Z,55.79
2023-02-03T12:28:33.268Z,55.71
2023-02-03T12:33:44.923Z,55.40
2023-02-03T12:38:46.991Z,55.34
2023-02-03T12:43:53.524Z,55.28
2023-02-03T12:49:05.885Z,55.45
2023-02-03T12:54:45.793Z,55.64
2023-02-03T13:00:17.431Z,55.84
2023-02-03T13:05:34.012Z,55.97
2023-02-03T13:10:44.414Z,56.03
2023-02-03T13:15:52.918Z,55.82
2023-02-03T13:20:56.078Z,55.88
2023-02-03T13:26:28.368Z,55.60
2023-02-03T13:31:49.028Z,55.69
2023-02-03T13:37:23.561Z,55.92
2023-02-03T13:42:32.449Z,55.84
2023-02-03T13:47:34.881Z,55.60
2023-02-03T13:52:46.102Z,55.45
2023-02-03T13:57:52.212Z,55.28
2023-02-03T14:02:56.507Z,55.13
2023-02-03T14:07:58.682Z,55.20
2023-02-03T14:13:02.464Z,55.41
2023-02-03T14:18:24.894Z,55.96
2023-02-03T14:23:34.221Z,55.62
2023-02-03T14:28:42.447Z,55.52
2023-02-03T14:34:15.352Z,55.34
2023-02-03T14:39:20.610Z,55.27
2023-02-03T14:44:50.376Z,55.37
2023-02-03T14:50:07.403Z,55.71
2023-02-03T14:55:31.230Z,55.56
2023-02-03T15:00:35.658Z,55.45
2023-02-03T15:05:46.252Z,55.16
2023-02-03T15:10:48.453Z,55.06
2023-02-03T15:16:13.065Z,55.12
2023-02-03T15:21:19.483Z,55.10
2023-02-03T15:26:24.940Z,55.33
2023-02-03T15:31:45.100Z,55.15
2023-02-03T15:36:51.490Z,55.04
2023-02-03T15:41:57.073Z,54.68
2023-02-03T15:47:03.108Z,54.90
2023-02-03T15:52:14.775Z,55.04
2023-02-03T15:57:24.725Z,55.04
2023-02-03T16:02:31.908Z,55.13
2023-02-03T16:07:34.098Z,55.42
2023-02-03T16:12:37.761Z,55.15
2023-02-03T16:17:40.002Z,55.15
2023-02-03T16:23:03.973Z,54.76
2023-02-03T16:28:35.438Z,55.12
2023-02-03T16:33:56.236Z,55.09
2023-02-03T16:39:20.455Z,54.98
2023-02-03T16:44:41.248Z,55.01
2023-02-03T16:50:02.019Z,54.91
2023-02-03T16:55:04.182Z,54.46
2023-02-03T17:00:08.954Z,54.42
2023-02-03T17:05:11.144Z,54.49
2023-02-03T17:10:13.564Z,54.70
2023-02-03T17:15:15.801Z,54.91
2023-02-03T17:20:18.049Z,54.97
2023-02-03T17:25:21.134Z,54.70
2023-02-03T17:30:23.490Z,54.63
2023-02-03T17:35:25.722Z,54.54
2023-02-03T17:56:35.849Z,54.61
2023-02-03T18:01:38.643Z,54.54
2023-02-03T18:06:41.032Z,54.52
2023-02-03T18:11:43.978Z,54.30
2023-02-03T18:16:46.389Z,54.75
2023-02-03T18:21:48.623Z,54.81
2023-02-03T18:26:52.058Z,54.84
2023-02-03T18:31:54.387Z,54.60
2023-02-03T18:36:56.602Z,54.25
2023-02-03T18:41:58.815Z,54.16
2023-02-03T18:47:07.133Z,54.21
2023-02-03T18:52:09.770Z,54.29
2023-02-03T18:57:14.452Z,54.73
2023-02-03T19:02:16.729Z,54.70
2023-02-03T19:07:19.059Z,54.61
2023-02-03T19:12:21.309Z,54.93
2023-02-03T19:17:23.764Z,54.51
2023-02-03T19:22:26.133Z,54.71
2023-02-03T19:27:28.288Z,54.39
2023-02-03T19:32:31.612Z,54.72
2023-02-03T19:37:33.743Z,54.56
2023-02-03T19:42:35.885Z,54.65
2023-02-03T19:47:38.148Z,54.83
2023-02-03T19:52:40.384Z,54.79
2023-02-03T19:57:42.519Z,54.28
2023-02-03T20:02:44.849Z,54.53
2023-02-03T20:07:47.364Z,54.62
2023-02-03T20:12:49.640Z,54.61
2023-02-03T20:17:51.902Z,54.43
2023-02-03T20:22:54.245Z,54.50
2023-02-03T20:27:58.410Z,54.32
2023-02-03T20:33:00.669Z,54.36
2023-02-03T20:38:02.872Z,54.38
2023-02-03T20:43:19.037Z,54.60
2023-02-03T20:48:22.902Z,54.61
2023-02-03T20:53:26.602Z,54.43
2023-02-03T20:58:32.628Z,54.30
2023-02-03T21:03:53.331Z,54.41
2023-02-03T21:09:02.030Z,54.13
2023-02-03T21:14:06.461Z,54.43
2023-02-03T21:19:14.972Z,54.64
2023-02-03T21:24:28.798Z,54.62
2023-02-03T21:29:36.948Z,54.49
2023-02-03T21:34:43.067Z,54.24
2023-02-03T21:39:46.211Z,54.28
2023-02-03T21:44:48.521Z,54.05
2023-02-03T21:49:50.671Z,54.24
2023-02-03T21:54:52.782Z,54.84
2023-02-03T21:59:54.945Z,54.87
2023-02-03T22:04:58.235Z,54.84
2023-02-03T22:10:00.433Z,54.50
2023-02-03T22:15:02.563Z,54.53
2023-02-03T22:20:05.040Z,54.08
2023-02-03T22:25:07.692Z,54.23
2023-02-03T22:30:14.640Z,54.18
2023-02-03T22:35:16.814Z,54.39
2023-02-03T22:40:19.265Z,54.42
2023-02-03T22:45:22.215Z,54.43
2023-02-03T22:50:34.717Z,54.01
2023-02-03T22:55:38.374Z,54.09
2023-02-03T23:00:40.613Z,54.26
2023-02-03T23:05:42.779Z,54.54
2023-02-03T23:10:44.979Z,54.48
2023-02-03T23:15:47.183Z,54.62
2023-02-03T23:20:49.386Z,54.48
2023-02-03T23:25:51.599Z,54.49
2023-02-03T23:30:53.799Z,54.25
2023-02-03T23:35:56.004Z,54.48
2023-02-03T23:40:58.112Z,54.52
2023-02-03T23:46:00.306Z,54.59
2023-02-03T23:51:02.461Z,54.38
2023-02-03T23:56:04.792Z,54.26
